createdAt,value
2019-01-26T00:01:02.301Z,29.23
2019-01-26T00:03:35.898Z,30.33
2019-01-26T00:06:06.308Z,31.30
2019-01-26T00:08:36.713Z,31.23
2019-01-26T00:11:07.618Z,31.53
2019-01-26T00:13:38.528Z,30.53
2019-01-26T00:16:09.738Z,31.27
2019-01-26T00:18:41.840Z,30.83
2019-01-26T00:21:12.238Z,32.90
2019-01-26T00:23:43.085Z,31.37
2019-01-26T00:26:14.641Z,31.17
2019-01-26T00:28:45.610Z,31.77
2019-01-26T00:31:21.101Z,31.57
2019-01-26T00:33:54.666Z,33.23
2019-01-26T00:36:25.463Z,32.77
2019-01-26T00:38:56.635Z,32.57
2019-01-26T00:41:31.020Z,31.23
2019-01-26T00:44:01.524Z,30.90
2019-01-26T00:46:35.260Z,32.97
2019-01-26T00:49:05.718Z,33.30
2019-01-26T00:51:37.044Z,32.23
2019-01-26T00:54:07.398Z,32.93
2019-01-26T00:56:37.649Z,33.73
2019-01-26T00:59:08.028Z,34.17
2019-01-26T01:01:40.776Z,32.63
2019-01-26T01:04:11.206Z,35.10
2019-01-26T01:06:41.648Z,36.07
2019-01-26T01:09:11.960Z,33.13
2019-01-26T01:11:44.545Z,33.33
2019-01-26T01:14:15.025Z,34.47
2019-01-26T01:16:45.448Z,35.83
2019-01-26T01:19:17.942Z,37.73
2019-01-26T01:21:48.764Z,35.67
2019-01-26T01:24:19.443Z,37.47
2019-01-26T01:26:49.877Z,36.83
2019-01-26T01:29:20.236Z,36.47
2019-01-26T01:31:53.383Z,37.60
2019-01-26T01:34:23.746Z,36.60
2019-01-26T01:36:54.391Z,37.87
2019-01-26T01:39:27.492Z,38.00
2019-01-26T01:41:57.945Z,38.13
2019-01-26T01:44:28.886Z,38.03
2019-01-26T01:46:59.374Z,38.07
2019-01-26T01:49:29.784Z,40.33
2019-01-26T01:52:00.638Z,39.37
2019-01-26T01:54:31.096Z,38.07
2019-01-26T01:57:02.693Z,40.73
2019-01-26T01:59:34.652Z,38.00
2019-01-26T02:02:05.141Z,39.67
2019-01-26T02:04:38.339Z,40.00
2019-01-26T02:07:08.735Z,40.87
2019-01-26T02:09:39.163Z,41.33
2019-01-26T02:12:09.544Z,40.50
2019-01-26T02:14:39.978Z,40.13
2019-01-26T02:17:10.349Z,39.97
2019-01-26T02:19:41.381Z,40.37
2019-01-26T02:22:13.180Z,40.43
2019-01-26T02:24:43.911Z,41.37
2019-01-26T02:27:14.419Z,41.10
2019-01-26T02:29:47.925Z,39.90
2019-01-26T02:32:18.560Z,40.13
2019-01-26T02:34:48.922Z,39.73
2019-01-26T02:37:21.041Z,40.20
2019-01-26T02:39:51.887Z,41.70
2019-01-26T02:42:22.286Z,41.63
2019-01-26T02:44:55.042Z,41.77
2019-01-26T02:47:25.353Z,43.17
2019-01-26T02:49:55.779Z,42.10
2019-01-26T02:52:26.176Z,43.33
2019-01-26T02:54:56.520Z,43.03
2019-01-26T02:57:34.391Z,43.10
2019-01-26T03:00:18.010Z,42.60
2019-01-26T03:02:48.517Z,43.17
2019-01-26T03:05:19.071Z,44.33
2019-01-26T03:07:49.486Z,44.00
2019-01-26T03:10:21.474Z,42.73
2019-01-26T03:12:52.541Z,42.37
2019-01-26T03:15:23.855Z,42.50
2019-01-26T03:17:54.258Z,44.27
2019-01-26T03:20:24.687Z,43.10
2019-01-26T03:22:56.071Z,44.53
2019-01-26T03:25:26.488Z,42.90
2019-01-26T03:27:59.751Z,43.80
2019-01-26T03:30:32.914Z,42.70
2019-01-26T03:33:03.346Z,41.53
2019-01-26T03:35:33.794Z,41.67
2019-01-26T03:38:04.231Z,42.13
2019-01-26T03:40:37.036Z,42.63
2019-01-26T03:43:07.566Z,43.07
2019-01-26T03:45:38.152Z,40.60
2019-01-26T03:48:10.092Z,41.03
2019-01-26T03:51:04.357Z,40.67
2019-01-26T03:53:54.594Z,42.33
2019-01-26T03:56:25.029Z,41.90
2019-01-26T03:59:02.663Z,42.23
2019-01-26T04:01:33.193Z,40.40
2019-01-26T04:04:03.583Z,40.93
2019-01-26T04:06:34.794Z,41.93
2019-01-26T04:09:09.380Z,40.97
2019-01-26T04:11:40.130Z,41.57
2019-01-26T04:14:10.544Z,42.63
2019-01-26T04:16:40.902Z,43.63
2019-01-26T04:19:11.671Z,43.10
2019-01-26T04:21:42.058Z,44.23
2019-01-26T04:24:12.594Z,44.67
2019-01-26T04:26:42.989Z,42.90
2019-01-26T04:29:13.425Z,44.17
2019-01-26T04:31:43.763Z,43.57
2019-01-26T04:34:14.471Z,45.10
2019-01-26T04:36:45.149Z,42.90
2019-01-26T04:39:17.814Z,43.77
2019-01-26T04:41:48.643Z,44.00
2019-01-26T04:44:20.837Z,43.90
2019-01-26T04:46:51.171Z,44.97
2019-01-26T04:49:21.599Z,44.83
2019-01-26T04:51:51.966Z,44.13
2019-01-26T04:54:22.335Z,46.33
2019-01-26T04:56:52.979Z,44.53
2019-01-26T04:59:23.377Z,44.97
2019-01-26T05:01:53.780Z,43.90
2019-01-26T05:04:24.141Z,43.97
2019-01-26T05:06:54.940Z,44.67
2019-01-26T05:09:26.700Z,44.27
2019-01-26T05:11:57.272Z,43.87
2019-01-26T05:14:27.670Z,44.20
2019-01-26T05:17:00.802Z,45.43
2019-01-26T05:19:31.216Z,43.83
2019-01-26T05:22:01.755Z,46.20
2019-01-26T05:24:32.122Z,44.07
2019-01-26T05:27:02.540Z,43.03
2019-01-26T05:29:35.022Z,42.40
2019-01-26T05:32:05.739Z,41.10
2019-01-26T05:34:36.110Z,42.93
2019-01-26T05:37:06.619Z,41.97
2019-01-26T05:39:37.315Z,40.27
2019-01-26T05:42:07.837Z,43.50
2019-01-26T05:44:40.132Z,40.83
2019-01-26T05:47:10.702Z,39.83
2019-01-26T05:49:42.734Z,42.13
2019-01-26T05:52:13.190Z,43.13
2019-01-26T05:54:43.688Z,40.80
2019-01-26T05:57:16.516Z,40.67
2019-01-26T05:59:46.928Z,41.37
2019-01-26T06:02:17.596Z,41.57
2019-01-26T06:04:48.082Z,39.87
2019-01-26T06:07:21.554Z,39.23
2019-01-26T06:09:51.906Z,40.87
2019-01-26T06:12:43.963Z,37.67
2019-01-26T06:15:16.749Z,39.73
2019-01-26T06:17:54.766Z,38.67
2019-01-26T06:20:24.763Z,38.90
2019-01-26T06:22:55.117Z,36.10
2019-01-26T06:25:25.959Z,39.17
2019-01-26T06:27:56.346Z,38.03
2019-01-26T06:30:27.440Z,39.67
2019-01-26T06:32:57.969Z,39.47
2019-01-26T06:35:28.831Z,41.17
2019-01-26T06:37:59.354Z,37.63
2019-01-26T06:40:30.163Z,39.43
2019-01-26T06:43:03.628Z,37.23
2019-01-26T06:45:37.499Z,36.67
2019-01-26T06:48:08.064Z,38.73
2019-01-26T06:50:39.483Z,37.93
2019-01-26T06:53:10.418Z,37.03
2019-01-26T06:55:43.068Z,38.87
2019-01-26T06:58:13.784Z,36.93
2019-01-26T07:00:44.294Z,36.67
2019-01-26T07:03:14.697Z,35.37
2019-01-26T07:06:04.304Z,36.10
2019-01-26T07:08:34.624Z,35.83
2019-01-26T07:11:05.009Z,35.40
2019-01-26T07:13:35.444Z,35.20
2019-01-26T07:16:05.967Z,35.03
2019-01-26T07:18:36.447Z,35.13
2019-01-26T07:21:06.877Z,34.40
2019-01-26T07:23:39.387Z,34.50
2019-01-26T07:26:10.276Z,33.37
2019-01-26T07:28:40.822Z,36.27
2019-01-26T07:31:12.195Z,35.70
2019-01-26T07:33:43.488Z,33.83
2019-01-26T07:36:13.945Z,33.13
2019-01-26T07:38:44.412Z,32.77
2019-01-26T07:41:14.833Z,32.87
2019-01-26T07:43:45.478Z,33.83
2019-01-26T07:46:15.878Z,33.97
2019-01-26T07:48:46.684Z,34.30
2019-01-26T07:51:17.107Z,33.57
2019-01-26T07:53:48.691Z,33.57
2019-01-26T07:56:19.195Z,35.50
2019-01-26T07:58:55.897Z,35.23
2019-01-26T08:01:29.734Z,33.00
2019-01-26T08:04:00.405Z,35.17
2019-01-26T08:06:31.464Z,33.70
2019-01-26T08:09:07.230Z,31.83
2019-01-26T08:11:37.740Z,31.07
2019-01-26T08:14:11.025Z,30.63
2019-01-26T08:16:43.298Z,29.63
2019-01-26T08:19:18.537Z,29.77
2019-01-26T08:21:52.114Z,29.43
2019-01-26T08:24:23.283Z,27.57
2019-01-26T08:26:53.683Z,29.60
2019-01-26T08:29:24.294Z,26.80
2019-01-26T08:31:54.715Z,29.03
2019-01-26T08:34:25.693Z,26.87
2019-01-26T08:36:59.053Z,27.50
2019-01-26T08:39:34.636Z,27.43
2019-01-26T08:42:05.452Z,27.10
2019-01-26T08:44:36.731Z,24.50
2019-01-26T08:47:07.599Z,25.53
2019-01-26T08:49:39.452Z,24.80
2019-01-26T08:52:09.852Z,24.40
2019-01-26T08:54:41.817Z,23.83
2019-01-26T08:57:14.621Z,24.63
2019-01-26T08:59:48.435Z,24.30
2019-01-26T09:02:37.775Z,24.37
2019-01-26T09:05:10.267Z,23.57
2019-01-26T09:07:41.715Z,22.67
2019-01-26T09:10:12.631Z,22.43
2019-01-26T09:12:43.110Z,22.63
2019-01-26T09:15:15.948Z,21.40
2019-01-26T09:17:47.141Z,21.43
2019-01-26T09:20:18.129Z,21.43
2019-01-26T09:22:48.609Z,20.43
2019-01-26T09:25:19.200Z,20.93
2019-01-26T09:27:53.055Z,21.80
2019-01-26T09:30:26.346Z,20.53
2019-01-26T09:32:57.638Z,22.53
2019-01-26T09:35:31.307Z,22.03
2019-01-26T09:38:01.777Z,20.83
2019-01-26T09:40:32.228Z,21.07
2019-01-26T09:43:02.765Z,20.50
2019-01-26T09:45:35.007Z,20.90
2019-01-26T09:48:08.418Z,20.17
2019-01-26T09:50:38.892Z,21.13
2019-01-26T09:53:10.004Z,21.27
2019-01-26T09:55:43.578Z,21.30
2019-01-26T09:58:16.942Z,19.87
2019-01-26T10:00:47.442Z,20.40
2019-01-26T10:03:17.902Z,20.57
2019-01-26T10:05:51.028Z,20.40
2019-01-26T10:08:24.735Z,20.50
2019-01-26T10:10:55.561Z,20.70
2019-01-26T10:13:26.055Z,20.23
2019-01-26T10:15:56.375Z,19.50
2019-01-26T10:18:27.113Z,20.73
2019-01-26T10:20:57.492Z,20.33
2019-01-26T10:23:27.996Z,18.97
2019-01-26T10:25:59.649Z,19.70
2019-01-26T10:28:32.035Z,19.90
2019-01-26T10:31:03.454Z,18.80
2019-01-26T10:33:33.883Z,18.27
2019-01-26T10:36:23.535Z,18.33
2019-01-26T10:38:57.183Z,18.13
2019-01-26T10:41:47.890Z,19.53
2019-01-26T10:44:27.803Z,17.30
2019-01-26T10:47:01.095Z,18.33
2019-01-26T10:49:31.474Z,18.03
2019-01-26T10:52:01.923Z,17.93
2019-01-26T10:54:35.446Z,18.20
2019-01-26T10:57:07.323Z,19.40
2019-01-26T10:59:37.899Z,17.30
2019-01-26T11:02:08.780Z,17.77
2019-01-26T11:04:39.162Z,16.63
2019-01-26T11:07:09.626Z,17.40
2019-01-26T11:09:39.986Z,17.70
2019-01-26T11:12:10.496Z,16.97
2019-01-26T11:14:40.858Z,17.47
2019-01-26T11:17:13.157Z,16.80
2019-01-26T11:19:43.518Z,16.13
2019-01-26T11:22:14.400Z,17.53
2019-01-26T11:24:44.831Z,17.83
2019-01-26T11:27:15.430Z,17.20
2019-01-26T11:29:45.925Z,18.00
2019-01-26T11:32:16.384Z,17.83
2019-01-26T11:34:47.039Z,17.57
2019-01-26T11:37:17.458Z,17.97
2019-01-26T11:39:54.942Z,18.77
2019-01-26T11:42:25.468Z,18.33
2019-01-26T11:45:24.065Z,18.13
2019-01-26T11:47:56.983Z,17.33
2019-01-26T11:50:33.237Z,18.87
2019-01-26T11:53:03.690Z,18.93
2019-01-26T11:55:40.675Z,18.87
2019-01-26T11:58:11.539Z,17.70
2019-01-26T12:00:59.375Z,17.13
2019-01-26T12:03:31.880Z,17.40
2019-01-26T12:06:20.061Z,17.47
2019-01-26T12:08:50.856Z,17.30
2019-01-26T12:11:21.673Z,16.40
2019-01-26T12:13:53.667Z,16.40
2019-01-26T12:16:27.108Z,15.90
2019-01-26T12:18:56.638Z,15.13
2019-01-26T12:21:27.086Z,15.47
2019-01-26T12:23:57.509Z,14.97
2019-01-26T12:26:28.052Z,14.63
2019-01-26T12:28:58.819Z,15.27
2019-01-26T12:31:29.456Z,13.77
2019-01-26T12:34:03.021Z,14.50
2019-01-26T12:36:33.757Z,13.60
2019-01-26T12:39:05.915Z,13.83
2019-01-26T12:41:36.668Z,14.10
2019-01-26T12:44:07.390Z,12.70
2019-01-26T12:46:39.930Z,12.57
2019-01-26T12:49:11.655Z,14.10
2019-01-26T12:51:42.957Z,13.17
2019-01-26T12:54:13.492Z,13.57
2019-01-26T12:56:46.071Z,13.70
2019-01-26T12:59:16.537Z,12.37
2019-01-26T13:01:46.909Z,12.67
2019-01-26T13:04:17.191Z,13.50
2019-01-26T13:06:49.831Z,12.40
2019-01-26T13:09:20.257Z,13.10
2019-01-26T13:11:50.699Z,12.90
2019-01-26T13:14:21.526Z,12.70
2019-01-26T13:16:52.262Z,13.10
2019-01-26T13:19:22.890Z,11.50
2019-01-26T13:21:53.547Z,10.83
2019-01-26T13:24:27.002Z,11.73
2019-01-26T13:26:57.979Z,9.83
2019-01-26T13:29:28.416Z,11.10
2019-01-26T13:31:58.981Z,10.53
2019-01-26T13:34:29.453Z,11.20
2019-01-26T13:37:00.373Z,12.63
2019-01-26T13:39:30.840Z,10.57
2019-01-26T13:42:02.104Z,8.90
2019-01-26T13:44:32.749Z,7.83
2019-01-26T13:47:03.553Z,8.90
2019-01-26T13:49:34.759Z,9.17
2019-01-26T13:52:07.399Z,8.53
2019-01-26T13:54:38.082Z,7.53
2019-01-26T13:57:08.872Z,7.73
2019-01-26T13:59:39.844Z,8.00
2019-01-26T14:02:13.066Z,8.20
2019-01-26T14:04:46.530Z,7.67
2019-01-26T14:07:17.112Z,7.17
2019-01-26T14:09:47.466Z,6.77
2019-01-26T14:12:18.210Z,7.20
2019-01-26T14:14:48.713Z,7.13
2019-01-26T14:17:20.496Z,6.23
2019-01-26T14:19:51.493Z,6.07
2019-01-26T14:22:22.027Z,6.87
2019-01-26T14:24:52.435Z,5.83
2019-01-26T14:27:23.397Z,9.60
2019-01-26T14:29:54.106Z,6.70
2019-01-26T14:32:26.268Z,6.17
2019-01-26T14:34:56.724Z,6.60
2019-01-26T14:37:27.493Z,6.33
2019-01-26T14:39:58.241Z,6.70
2019-01-26T14:42:29.982Z,6.57
2019-01-26T14:45:00.334Z,6.50
2019-01-26T14:47:30.751Z,6.57
2019-01-26T14:50:01.159Z,6.57
2019-01-26T14:52:33.912Z,7.17
2019-01-26T14:55:08.294Z,7.70
2019-01-26T14:57:38.990Z,7.20
2019-01-26T15:00:18.371Z,7.40
2019-01-26T15:02:48.722Z,7.60
2019-01-26T15:05:19.171Z,7.30
2019-01-26T15:07:49.616Z,7.73
2019-01-26T15:10:19.991Z,8.30
2019-01-26T15:12:50.417Z,7.83
2019-01-26T15:15:21.686Z,7.90
2019-01-26T15:17:52.181Z,8.03
2019-01-26T15:20:27.656Z,7.07
2019-01-26T15:22:58.082Z,7.93
2019-01-26T15:25:31.440Z,9.83
2019-01-26T15:28:03.804Z,8.00
2019-01-26T15:30:38.848Z,7.63
2019-01-26T15:33:11.123Z,7.57
2019-01-26T15:35:42.205Z,7.03
2019-01-26T15:38:15.023Z,7.00
2019-01-26T15:40:45.604Z,7.20
2019-01-26T15:43:18.097Z,6.80
2019-01-26T15:45:50.007Z,6.87
2019-01-26T15:48:22.971Z,6.20
2019-01-26T15:50:53.406Z,6.17
2019-01-26T15:53:24.027Z,5.33
2019-01-26T15:55:58.011Z,6.50
2019-01-26T15:58:34.767Z,6.07
2019-01-26T16:01:08.172Z,7.17
2019-01-26T16:03:40.995Z,5.87
2019-01-26T16:06:11.861Z,5.43
2019-01-26T16:08:42.238Z,5.50
2019-01-26T16:11:12.935Z,5.27
2019-01-26T16:13:43.289Z,5.57
2019-01-26T16:16:14.019Z,5.97
2019-01-26T16:18:45.857Z,5.87
2019-01-26T16:21:17.156Z,5.70
2019-01-26T16:23:47.743Z,5.20
2019-01-26T16:26:18.296Z,5.43
2019-01-26T16:28:48.997Z,5.83
2019-01-26T16:31:20.682Z,8.57
2019-01-26T16:33:51.058Z,6.57
2019-01-26T16:36:21.918Z,6.40
2019-01-26T16:38:53.125Z,5.07
2019-01-26T16:41:23.714Z,5.70
2019-01-26T16:43:54.221Z,5.03
2019-01-26T16:46:24.807Z,4.63
2019-01-26T16:48:55.426Z,3.57
2019-01-26T16:51:26.279Z,4.63
2019-01-26T16:53:56.907Z,4.33
2019-01-26T16:56:27.440Z,4.70
2019-01-26T16:58:58.553Z,4.80
2019-01-26T17:01:47.999Z,3.90
2019-01-26T17:04:44.923Z,3.87
2019-01-26T17:07:38.171Z,8.90
2019-01-26T17:13:39.770Z,4.37
2019-01-26T17:16:53.919Z,3.73
2019-01-26T17:19:44.043Z,4.20
2019-01-26T17:22:15.883Z,4.03
2019-01-26T17:24:46.275Z,4.20
2019-01-26T17:27:16.741Z,3.80
2019-01-26T17:29:47.979Z,4.53
2019-01-26T17:32:19.081Z,4.97
2019-01-26T17:34:52.357Z,5.93
2019-01-26T17:37:24.313Z,4.73
2019-01-26T17:39:54.955Z,5.50
2019-01-26T17:42:25.408Z,3.87
2019-01-26T17:44:56.715Z,8.30
2019-01-26T17:47:27.166Z,5.37
2019-01-26T17:49:57.571Z,5.27
2019-01-26T17:52:29.978Z,3.87
2019-01-26T17:55:00.437Z,4.03
2019-01-26T17:57:30.836Z,4.33
2019-01-26T18:08:56.848Z,4.77
2019-01-26T18:19:07.565Z,4.43
2019-01-26T18:21:40.959Z,4.60
2019-01-26T18:24:12.322Z,5.23
2019-01-26T18:26:42.864Z,5.33
2019-01-26T18:29:13.532Z,4.67
2019-01-26T18:31:44.614Z,5.60
2019-01-26T18:34:14.999Z,5.17
2019-01-26T18:36:45.569Z,7.23
2019-01-26T18:39:16.324Z,10.23
2019-01-26T18:41:48.703Z,5.50
2019-01-26T18:44:19.344Z,4.33
2019-01-26T18:46:50.010Z,4.70
2019-01-26T18:49:20.736Z,4.73
2019-01-26T18:51:51.371Z,5.67
2019-01-26T18:54:22.119Z,5.17
2019-01-26T18:56:52.528Z,6.13
2019-01-26T18:59:24.298Z,6.13
2019-01-26T19:01:54.784Z,6.73
2019-01-26T19:04:34.208Z,5.27
2019-01-26T19:07:04.576Z,5.13
2019-01-26T19:09:34.960Z,4.70
2019-01-26T19:12:05.626Z,4.40
2019-01-26T19:14:36.028Z,5.70
2019-01-26T19:17:06.559Z,5.93
2019-01-26T19:19:36.926Z,5.30
2019-01-26T19:22:07.395Z,4.83
2019-01-26T19:24:37.713Z,5.20
2019-01-26T19:27:08.126Z,5.27
2019-01-26T19:29:38.580Z,4.60
2019-01-26T19:32:09.038Z,4.80
2019-01-26T19:34:39.643Z,5.33
2019-01-26T19:37:10.733Z,5.87
2019-01-26T19:39:41.217Z,4.60
2019-01-26T19:42:12.827Z,5.93
2019-01-26T19:44:56.616Z,4.63
2019-01-26T19:47:29.495Z,4.50
2019-01-26T19:50:01.791Z,4.63
2019-01-26T19:52:33.775Z,4.60
2019-01-26T19:55:07.986Z,62.97
2019-01-26T19:57:39.334Z,6.07
2019-01-26T20:00:10.497Z,5.20
2019-01-26T20:02:40.965Z,5.20
2019-01-26T20:05:15.875Z,4.67
2019-01-26T20:07:46.637Z,7.43
2019-01-26T20:10:17.813Z,8.07
2019-01-26T20:12:48.304Z,8.33
2019-01-26T20:15:20.667Z,6.97
2019-01-26T20:17:51.141Z,6.70
2019-01-26T20:20:36.070Z,6.63
2019-01-26T20:23:06.528Z,7.67
2019-01-26T20:25:37.007Z,5.47
2019-01-26T20:28:07.766Z,4.47
2019-01-26T20:30:38.575Z,5.37
2019-01-26T20:33:09.002Z,5.23
2019-01-26T20:35:39.458Z,5.13
2019-01-26T20:38:10.268Z,4.80
2019-01-26T20:40:40.627Z,4.73
2019-01-26T20:43:11.513Z,4.53
2019-01-26T20:45:42.266Z,4.20
2019-01-26T20:48:12.593Z,4.00
2019-01-26T20:50:42.991Z,4.07
2019-01-26T20:53:13.467Z,4.00
2019-01-26T20:55:47.494Z,3.67
2019-01-26T20:58:17.906Z,4.00
2019-01-26T21:00:49.742Z,3.67
2019-01-26T21:03:22.457Z,4.30
2019-01-26T21:05:52.886Z,3.67
2019-01-26T21:08:23.246Z,2.90
2019-01-26T21:10:56.762Z,4.13
2019-01-26T21:13:29.500Z,3.50
2019-01-26T21:15:59.910Z,2.90
2019-01-26T21:18:30.329Z,3.03
2019-01-26T21:21:01.182Z,2.47
2019-01-26T21:23:31.588Z,2.93
2019-01-26T21:26:02.028Z,2.40
2019-01-26T21:28:32.951Z,2.73
2019-01-26T21:31:04.094Z,2.83
2019-01-26T21:33:34.385Z,3.10
2019-01-26T21:36:06.230Z,2.30
2019-01-26T21:38:36.763Z,2.50
2019-01-26T21:41:07.142Z,2.33
2019-01-26T21:43:37.768Z,2.50
2019-01-26T21:46:09.136Z,2.17
2019-01-26T21:48:40.610Z,2.30
2019-01-26T21:51:11.028Z,2.10
2019-01-26T21:53:41.481Z,2.07
2019-01-26T21:56:11.970Z,2.40
2019-01-26T21:58:43.094Z,2.17
2019-01-26T22:01:13.545Z,2.00
2019-01-26T22:03:43.976Z,2.17
2019-01-26T22:06:14.477Z,1.73
2019-01-26T22:08:47.618Z,2.40
2019-01-26T22:11:18.018Z,2.30
2019-01-26T22:13:48.535Z,2.17
2019-01-26T22:16:19.411Z,2.40
2019-01-26T22:18:49.842Z,2.33
2019-01-26T22:21:20.270Z,2.63
2019-01-26T22:23:50.665Z,2.00
2019-01-26T22:26:21.050Z,2.20
2019-01-26T22:28:51.404Z,2.30
2019-01-26T22:31:21.774Z,2.00
2019-01-26T22:33:52.149Z,19.23
2019-01-26T22:36:22.752Z,3.40
2019-01-26T22:38:53.270Z,2.13
2019-01-26T22:41:23.641Z,2.70
2019-01-26T22:43:54.070Z,2.20
2019-01-26T22:46:24.539Z,2.57
2019-01-26T22:48:54.976Z,2.20
2019-01-26T22:51:25.318Z,2.20
2019-01-26T22:53:55.730Z,2.30
2019-01-26T22:56:26.110Z,1.93
2019-01-26T22:58:56.456Z,1.50
2019-01-26T23:01:33.483Z,1.97
2019-01-26T23:04:25.320Z,1.97
2019-01-26T23:07:33.348Z,1.93
2019-01-26T23:10:58.472Z,1.80
2019-01-26T23:13:48.351Z,2.30
2019-01-26T23:16:55.536Z,2.37
2019-01-26T23:20:15.640Z,2.13
2019-01-26T23:23:15.089Z,2.80
2019-01-26T23:26:00.851Z,2.30
2019-01-26T23:29:13.519Z,2.43
2019-01-26T23:31:44.244Z,3.37
2019-01-26T23:34:14.630Z,2.80
2019-01-26T23:36:45.432Z,3.13
2019-01-26T23:39:15.895Z,3.20
2019-01-26T23:41:46.337Z,3.47
2019-01-26T23:44:16.714Z,3.27
2019-01-26T23:46:47.144Z,3.03
2019-01-26T23:49:17.642Z,3.00
2019-01-26T23:51:47.842Z,3.33
2019-01-26T23:54:18.167Z,2.70
2019-01-26T23:56:48.523Z,2.33
2019-01-26T23:59:19.172Z,3.33
